Time;durP1;ratioP1;P1;durP2;ratioP2;P2;SDS_P1;SDS_P2;PMS_P1;PMS_P2;Temp;Humidity;BMP_temperature;BMP_pressure;BME280_temperature;BME280_humidity;BME280_pressure;Samples;Min_cycle;Max_cycle;Signal;HPM_P1;HPM_P2
2022/12/31 00:01:52;;;;;;;16.27;12.80;;;6.10;79.20;;;;;;5032061;28;20025;-52
2022/12/31 00:04:18;;;;;;;19.55;13.27;;;6.10;79.10;;;;;;5027099;28;20060;-55
2022/12/31 00:06:44;;;;;;;18.48;13.48;;;6.20;79.10;;;;;;5031878;28;20029;-55
2022/12/31 00:09:10;;;;;;;19.10;13.50;;;6.20;79.10;;;;;;5031625;28;20021;-53
2022/12/31 00:11:36;;;;;;;16.70;12.93;;;6.20;79.10;;;;;;5030320;28;20032;-52
2022/12/31 00:14:03;;;;;;;17.63;13.10;;;6.20;79.10;;;;;;5029499;28;20399;-52
2022/12/31 00:16:37;;;;;;;17.27;12.68;;;6.20;79.00;;;;;;5029311;28;20033;-53
2022/12/31 00:19:05;;;;;;;16.42;12.57;;;6.20;79.10;;;;;;5030361;28;20033;-62
2022/12/31 00:21:32;;;;;;;19.25;14.05;;;6.20;79.10;;;;;;5023131;28;20029;-62
2022/12/31 00:23:58;;;;;;;22.10;15.20;;;6.20;79.10;;;;;;5031252;28;20497;-51
2022/12/31 00:26:27;;;;;;;19.73;13.43;;;6.20;79.10;;;;;;5033529;28;20460;-54
2022/12/31 00:28:55;;;;;;;17.20;12.60;;;6.20;79.10;;;;;;5036090;28;20515;-64
2022/12/31 00:31:26;;;;;;;17.98;14.13;;;6.20;79.10;;;;;;5035685;28;20034;-63
2022/12/31 00:33:52;;;;;;;16.10;12.60;;;6.20;79.10;;;;;;5031811;28;20108;-55
2022/12/31 00:36:20;;;;;;;17.10;13.45;;;6.20;79.10;;;;;;5035303;28;20037;-56
2022/12/31 00:38:47;;;;;;;15.63;12.10;;;6.30;79.30;;;;;;5033113;28;20033;-55
2022/12/31 00:41:16;;;;;;;17.48;12.82;;;6.30;79.30;;;;;;5035796;28;20456;-54
2022/12/31 00:43:42;;;;;;;17.42;13.45;;;6.30;79.40;;;;;;5035188;28;20028;-65
2022/12/31 00:46:08;;;;;;;19.52;14.15;;;6.30;79.40;;;;;;5035487;28;20049;-63
2022/12/31 00:48:35;;;;;;;20.13;13.80;;;6.30;79.40;;;;;;5033215;28;20075;-55
2022/12/31 00:51:02;;;;;;;19.58;14.18;;;6.20;79.50;;;;;;5026377;28;20120;-51
2022/12/31 00:53:29;;;;;;;18.08;14.27;;;6.30;79.80;;;;;;5035008;28;20440;-57
2022/12/31 00:56:22;;;;;;;18.75;13.25;;;6.20;80.30;;;;;;5038945;28;20108;-58
2022/12/31 00:58:48;;;;;;;21.10;14.00;;;6.20;79.70;;;;;;5039419;28;20501;-52
2022/12/31 01:01:16;;;;;;;20.33;14.45;;;6.20;80.00;;;;;;5031462;28;20037;-56
2022/12/31 01:03:42;;;;;;;16.10;12.93;;;6.10;80.10;;;;;;5029107;28;20048;-57
2022/12/31 01:06:08;;;;;;;17.90;13.35;;;6.10;80.20;;;;;;5033554;28;20026;-62
2022/12/31 01:08:34;;;;;;;17.30;12.98;;;6.10;80.50;;;;;;5034821;28;20056;-63
2022/12/31 01:11:18;;;;;;;19.00;14.18;;;6.00;80.50;;;;;;5034891;28;20554;-52
2022/12/31 01:14:00;;;;;;;17.85;13.10;;;6.10;80.60;;;;;;5034516;28;20065;-53
2022/12/31 01:16:33;;;;;;;16.48;12.93;;;6.10;80.60;;;;;;5035131;28;20030;-62
2022/12/31 01:19:01;;;;;;;16.63;13.63;;;6.10;80.70;;;;;;5020700;28;20024;-63
2022/12/31 01:21:27;;;;;;;17.27;13.70;;;6.00;80.80;;;;;;5026098;28;20108;-51
2022/12/31 01:23:53;;;;;;;17.95;12.98;;;6.00;81.00;;;;;;5035101;28;20033;-52
2022/12/31 01:26:19;;;;;;;17.70;13.80;;;6.00;81.10;;;;;;5034138;28;20032;-71
2022/12/31 01:28:45;;;;;;;18.23;14.05;;;6.00;81.20;;;;;;5034990;28;20013;-72
2022/12/31 01:31:16;;;;;;;17.80;14.23;;;6.00;81.40;;;;;;5033863;28;20021;-49
2022/12/31 01:33:43;;;;;;;20.30;14.68;;;5.90;81.40;;;;;;5020244;28;20033;-51
2022/12/31 01:36:14;;;;;;;20.58;14.85;;;5.90;81.50;;;;;;5030722;28;20029;-56
2022/12/31 01:38:40;;;;;;;18.60;14.57;;;5.90;81.70;;;;;;5034574;28;20052;-56
2022/12/31 01:41:06;;;;;;;18.42;13.93;;;5.80;81.80;;;;;;5034738;28;20061;-50
2022/12/31 01:43:53;;;;;;;19.83;13.05;;;5.80;81.90;;;;;;5033609;28;20040;-51
2022/12/31 01:46:31;;;;;;;16.05;12.07;;;5.80;82.00;;;;;;5034411;28;20034;-51
2022/12/31 01:49:01;;;;;;;17.25;13.23;;;5.70;82.10;;;;;;5034521;28;20030;-48
2022/12/31 01:51:32;;;;;;;19.70;14.55;;;5.70;82.30;;;;;;5027250;28;20037;-63
2022/12/31 01:53:59;;;;;;;17.60;14.32;;;5.70;82.40;;;;;;5021340;28;20113;-61
2022/12/31 01:56:25;;;;;;;19.23;14.10;;;5.70;82.50;;;;;;5029311;28;20069;-69
2022/12/31 01:58:53;;;;;;;17.90;14.40;;;5.70;82.60;;;;;;5029269;28;20057;-63
2022/12/31 02:01:24;;;;;;;19.90;14.20;;;5.70;82.80;;;;;;5032567;28;20033;-51
2022/12/31 02:03:51;;;;;;;20.13;14.43;;;5.60;82.80;;;;;;5033795;28;20077;-52
2022/12/31 02:06:21;;;;;;;18.70;15.13;;;5.60;83.00;;;;;;5033952;28;20056;-53
2022/12/31 02:08:47;;;;;;;19.90;14.38;;;5.60;83.20;;;;;;5032095;28;20036;-55
2022/12/31 02:11:31;;;;;;;19.42;15.23;;;5.60;83.20;;;;;;5033439;28;20038;-67
2022/12/31 02:14:02;;;;;;;19.13;15.10;;;5.50;83.20;;;;;;5022124;28;20406;-71
2022/12/31 02:16:30;;;;;;;18.75;13.93;;;5.60;83.60;;;;;;5033937;28;20479;-53
2022/12/31 02:19:22;;;;;;;19.08;14.68;;;5.50;83.60;;;;;;5033679;28;20021;-51
2022/12/31 02:22:21;;;;;;;17.85;13.10;;;5.50;83.50;;;;;;5032626;28;20787;-51
2022/12/31 02:25:17;;;;;;;17.42;13.80;;;5.50;83.50;;;;;;5031151;28;20132;-51
2022/12/31 02:27:55;;;;;;;15.82;12.68;;;5.50;83.60;;;;;;5026152;28;20025;-64
2022/12/31 02:30:23;;;;;;;17.65;13.35;;;5.60;83.70;;;;;;5032445;28;20109;-57
2022/12/31 02:33:27;;;;;;;17.40;13.63;;;5.60;83.70;;;;;;5033657;28;20346;-57
2022/12/31 02:35:59;;;;;;;16.17;12.38;;;5.60;83.50;;;;;;5032613;28;20603;-59
2022/12/31 02:38:26;;;;;;;;;;;5.60;83.70;;;;;;5034010;28;20057;-58
2022/12/31 02:40:55;;;;;;;18.50;13.27;;;5.60;83.70;;;;;;5033232;28;19919;-57
2022/12/31 02:43:22;;;;;;;19.10;14.50;;;5.60;83.60;;;;;;5032923;28;20021;-57
2022/12/31 02:46:06;;;;;;;18.90;13.68;;;5.60;83.70;;;;;;5033661;28;20036;-61
2022/12/31 02:48:59;;;;;;;18.08;14.38;;;5.50;83.80;;;;;;5030653;28;20483;-63
2022/12/31 02:51:54;;;;;;;16.50;12.40;;;5.50;83.70;;;;;;5031815;28;20031;-58
2022/12/31 02:54:19;;;;;;;15.13;11.52;;;5.50;83.70;;;;;;5020799;28;20029;-57
2022/12/31 02:56:57;;;;;;;20.27;13.65;;;5.60;84.00;;;;;;5034092;28;20497;-57
2022/12/31 03:02:18;;;;;;;16.00;12.68;;;5.60;83.90;;;;;;5031444;28;20442;-51
2022/12/31 03:04:57;;;;;;;16.35;12.98;;;5.60;83.90;;;;;;5032790;28;20045;-54
2022/12/31 03:07:25;;;;;;;15.02;11.65;;;5.70;83.90;;;;;;5033015;28;20025;-51
2022/12/31 03:09:51;;;;;;;15.95;12.55;;;5.70;83.80;;;;;;5033001;28;20045;-52
2022/12/31 03:15:06;;;;;;;16.00;11.98;;;5.80;83.50;;;;;;5031734;28;20044;-54
2022/12/31 03:17:33;;;;;;;18.02;13.38;;;5.90;83.30;;;;;;5032745;28;20371;-51
2022/12/31 03:22:43;;;;;;;13.48;10.93;;;5.90;83.10;;;;;;5032449;28;20590;-49
2022/12/31 03:27:54;;;;;;;15.10;10.93;;;6.00;82.90;;;;;;5032412;28;20040;-55
2022/12/31 03:30:21;;;;;;;16.63;12.38;;;6.00;82.80;;;;;;5032717;28;20433;-62
2022/12/31 03:32:48;;;;;;;17.15;12.55;;;6.00;82.70;;;;;;5032504;28;20026;-64
2022/12/31 03:35:19;;;;;;;14.45;11.35;;;6.00;83.10;;;;;;5027326;28;20044;-64
2022/12/31 03:37:45;;;;;;;16.77;12.43;;;6.10;82.50;;;;;;5032263;28;20038;-63
2022/12/31 03:40:12;;;;;;;14.60;11.40;;;6.10;82.40;;;;;;5032575;28;20044;-53
2022/12/31 03:42:38;;;;;;;18.25;13.90;;;6.10;82.30;;;;;;5032039;28;20108;-54
2022/12/31 03:45:05;;;;;;;15.68;12.52;;;6.10;82.10;;;;;;5028953;28;20052;-53
2022/12/31 03:47:30;;;;;;;18.85;12.07;;;6.10;82.00;;;;;;5031694;28;20029;-53
2022/12/31 03:49:56;;;;;;;17.38;12.07;;;6.10;81.90;;;;;;5032418;28;20454;-54
2022/12/31 03:52:21;;;;;;;12.68;10.98;;;6.20;81.80;;;;;;5025357;28;20474;-59
2022/12/31 03:54:47;;;;;;;16.17;12.20;;;6.10;81.70;;;;;;5031578;28;20048;-59
2022/12/31 03:57:13;;;;;;;17.17;12.88;;;6.10;81.70;;;;;;5033350;28;20361;-65
2022/12/31 03:59:38;;;;;;;17.40;12.43;;;6.10;81.50;;;;;;5032404;28;20586;-73
2022/12/31 04:02:04;;;;;;;15.23;11.82;;;6.10;81.40;;;;;;5032057;28;20459;-58
2022/12/31 04:04:30;;;;;;;15.65;12.63;;;6.10;81.50;;;;;;5031863;28;20054;-57
2022/12/31 04:06:55;;;;;;;17.88;13.60;;;6.10;81.50;;;;;;5031394;28;20526;-56
2022/12/31 04:09:21;;;;;;;16.70;12.05;;;6.10;81.50;;;;;;5024894;28;20038;-56
2022/12/31 04:11:47;;;;;;;14.90;11.48;;;6.10;81.50;;;;;;5027619;28;20029;-73
2022/12/31 04:14:13;;;;;;;17.92;11.85;;;6.10;81.50;;;;;;5032227;28;20065;-72
2022/12/31 04:16:38;;;;;;;15.00;12.15;;;6.20;81.60;;;;;;5031698;28;20026;-59
2022/12/31 04:19:04;;;;;;;17.00;12.57;;;6.20;82.10;;;;;;5031247;28;20037;-59
2022/12/31 04:21:30;;;;;;;16.00;12.05;;;6.20;81.50;;;;;;5017409;28;20110;-71
2022/12/31 04:23:55;;;;;;;15.40;11.63;;;6.20;81.50;;;;;;5031835;28;20046;-72
2022/12/31 04:26:21;;;;;;;15.30;12.00;;;6.20;81.50;;;;;;5030621;28;20034;-70
2022/12/31 04:28:47;;;;;;;14.93;10.98;;;6.20;81.50;;;;;;5031945;28;20022;-72
2022/12/31 04:31:12;;;;;;;16.15;11.13;;;6.20;81.40;;;;;;5031063;28;20248;-54
2022/12/31 04:33:38;;;;;;;14.98;10.88;;;6.20;81.40;;;;;;5031582;28;20026;-52
2022/12/31 04:36:06;;;;;;;13.45;10.55;;;6.20;81.50;;;;;;5032380;28;20037;-59
2022/12/31 04:38:33;;;;;;;15.23;11.20;;;6.20;81.50;;;;;;5018762;28;20037;-59
2022/12/31 04:41:17;;;;;;;15.60;11.68;;;6.20;81.40;;;;;;5031739;28;20026;-52
2022/12/31 04:43:45;;;;;;;15.90;11.27;;;6.20;81.40;;;;;;5029852;28;20522;-53
2022/12/31 04:46:12;;;;;;;15.65;11.55;;;6.20;81.40;;;;;;5031651;28;20080;-65
2022/12/31 04:48:38;;;;;;;15.32;11.52;;;6.20;81.30;;;;;;5031462;28;20068;-64
2022/12/31 04:51:04;;;;;;;14.25;11.18;;;6.20;81.30;;;;;;5030902;28;20029;-52
2022/12/31 04:53:30;;;;;;;15.07;11.75;;;6.20;81.10;;;;;;5030722;28;20021;-52
2022/12/31 04:55:56;;;;;;;14.02;10.85;;;6.20;81.10;;;;;;5033196;28;20069;-64
2022/12/31 04:58:22;;;;;;;16.55;11.85;;;6.20;81.10;;;;;;5032000;28;20468;-64
2022/12/31 05:00:49;;;;;;;18.10;12.02;;;6.10;81.00;;;;;;5030324;28;20105;-59
2022/12/31 05:03:15;;;;;;;14.98;11.75;;;6.10;81.10;;;;;;5031418;28;20037;-59
2022/12/31 05:05:42;;;;;;;17.50;12.93;;;6.10;81.30;;;;;;5030541;28;20037;-59
2022/12/31 05:08:11;;;;;;;14.77;12.25;;;6.00;81.30;;;;;;5030731;28;20422;-60
2022/12/31 05:10:40;;;;;;;16.65;12.02;;;6.10;81.50;;;;;;5031384;28;20448;-72
2022/12/31 05:13:06;;;;;;;15.60;11.93;;;6.10;81.50;;;;;;5034783;28;20061;-73
2022/12/31 05:15:31;;;;;;;15.55;11.90;;;6.10;81.40;;;;;;5034802;28;20491;-67
2022/12/31 05:17:57;;;;;;;16.23;11.82;;;6.10;81.50;;;;;;5033095;28;20030;-73
2022/12/31 05:20:23;;;;;;;15.63;11.50;;;6.10;82.00;;;;;;5030766;28;20030;-51
2022/12/31 05:22:48;;;;;;;14.40;11.00;;;6.10;81.30;;;;;;5026643;28;20040;-50
2022/12/31 05:25:14;;;;;;;13.68;11.57;;;6.10;81.20;;;;;;5034890;28;20511;-60
2022/12/31 05:27:40;;;;;;;16.25;12.35;;;6.10;81.20;;;;;;5034764;28;20480;-59
2022/12/31 05:30:06;;;;;;;15.60;12.05;;;6.10;81.00;;;;;;5032589;28;20411;-60
2022/12/31 05:32:32;;;;;;;16.15;12.82;;;6.10;81.10;;;;;;5034609;28;20049;-59
2022/12/31 05:34:58;;;;;;;14.40;11.90;;;6.00;81.00;;;;;;5033408;28;20112;-57
2022/12/31 05:37:28;;;;;;;16.92;12.90;;;6.00;81.20;;;;;;5033719;28;20117;-58
2022/12/31 05:39:54;;;;;;;17.00;13.57;;;5.90;81.30;;;;;;5033767;28;20029;-60
2022/12/31 05:42:20;;;;;;;17.15;12.90;;;5.90;81.50;;;;;;5034471;28;20037;-64
2022/12/31 05:44:45;;;;;;;15.63;12.68;;;5.90;81.50;;;;;;5033839;28;20052;-63
2022/12/31 05:47:11;;;;;;;14.68;12.35;;;5.90;81.50;;;;;;5034764;28;20467;-58
2022/12/31 05:49:37;;;;;;;17.38;12.73;;;5.90;81.70;;;;;;5032350;28;20044;-60
2022/12/31 05:52:03;;;;;;;15.25;12.45;;;5.90;81.70;;;;;;5033279;28;20048;-51
2022/12/31 05:54:28;;;;;;;15.93;12.35;;;5.90;81.70;;;;;;5021470;28;20031;-53
2022/12/31 05:56:54;;;;;;;17.27;13.05;;;5.90;81.70;;;;;;5035263;28;20033;-56
2022/12/31 05:59:20;;;;;;;17.73;13.27;;;5.90;81.70;;;;;;5032167;28;20025;-56
2022/12/31 06:01:45;;;;;;;18.25;14.30;;;6.00;81.70;;;;;;5033592;28;20029;-73
2022/12/31 06:04:11;;;;;;;15.65;12.73;;;6.00;81.50;;;;;;5033209;28;20095;-69
2022/12/31 06:06:37;;;;;;;19.33;13.48;;;6.00;81.50;;;;;;5032941;28;20029;-56
2022/12/31 06:09:03;;;;;;;16.27;12.43;;;5.90;81.60;;;;;;5032812;28;20031;-56
2022/12/31 06:11:28;;;;;;;17.30;12.52;;;6.00;81.80;;;;;;5031915;28;20479;-63
2022/12/31 06:13:54;;;;;;;16.25;12.25;;;6.00;81.90;;;;;;5032677;28;20033;-66
2022/12/31 06:16:19;;;;;;;16.92;12.45;;;6.00;81.90;;;;;;5032563;28;20112;-66
2022/12/31 06:18:49;;;;;;;13.75;11.65;;;6.10;82.00;;;;;;5031728;28;20022;-72
2022/12/31 06:21:16;;;;;;;15.88;10.82;;;6.10;82.00;;;;;;5033573;28;20061;-71
2022/12/31 06:23:42;;;;;;;15.55;11.07;;;6.10;82.00;;;;;;5029591;28;20466;-73
2022/12/31 06:26:07;;;;;;;15.18;11.70;;;6.20;82.00;;;;;;5032165;28;20057;-74
2022/12/31 06:28:34;;;;;;;16.00;11.88;;;6.20;81.80;;;;;;5032394;28;20069;-73
2022/12/31 06:31:04;;;;;;;16.33;11.32;;;6.20;81.70;;;;;;5031909;28;20026;-56
2022/12/31 06:33:30;;;;;;;14.48;11.68;;;6.30;81.70;;;;;;5030655;28;20033;-57
2022/12/31 06:35:57;;;;;;;13.52;10.95;;;6.30;81.60;;;;;;5033254;28;20029;-65
2022/12/31 06:38:24;;;;;;;14.60;10.85;;;6.30;81.50;;;;;;5033388;28;20112;-64
2022/12/31 06:40:49;;;;;;;15.23;11.68;;;6.40;81.50;;;;;;5031111;28;20027;-58
2022/12/31 06:43:15;;;;;;;14.98;11.45;;;6.40;81.40;;;;;;5033225;28;20065;-56
2022/12/31 06:45:41;;;;;;;15.77;12.13;;;6.40;81.30;;;;;;5032799;28;20072;-55
2022/12/31 06:48:07;;;;;;;17.38;12.07;;;6.40;81.30;;;;;;5033760;28;20026;-52
2022/12/31 06:50:33;;;;;;;16.52;12.57;;;6.40;81.20;;;;;;5019297;28;20034;-72
2022/12/31 06:52:58;;;;;;;16.33;12.50;;;6.40;81.10;;;;;;5027488;28;20033;-67
2022/12/31 06:55:25;;;;;;;18.63;13.02;;;6.40;81.30;;;;;;5018470;28;20041;-56
2022/12/31 06:57:51;;;;;;;15.65;12.73;;;6.40;81.20;;;;;;5034204;28;20028;-56
2022/12/31 07:00:17;;;;;;;19.08;14.85;;;6.40;81.30;;;;;;5032839;28;20036;-53
2022/12/31 07:03:00;;;;;;;19.75;15.75;;;6.40;81.20;;;;;;5033795;28;20029;-53
2022/12/31 07:05:57;;;;;;;21.02;14.68;;;6.40;81.20;;;;;;5031246;28;20384;-64
2022/12/31 07:08:50;;;;;;;21.58;16.02;;;6.40;81.00;;;;;;5021853;28;20029;-64
2022/12/31 07:11:20;;;;;;;20.58;14.88;;;6.40;80.80;;;;;;5024258;28;20033;-53
2022/12/31 07:13:54;;;;;;;21.75;16.15;;;6.40;81.00;;;;;;5030208;28;20083;-52
2022/12/31 07:17:03;;;;;;;22.23;15.73;;;6.40;81.00;;;;;;5032060;28;20029;-53
2022/12/31 07:19:39;;;;;;;19.63;15.05;;;6.40;81.00;;;;;;5019474;28;20052;-56
2022/12/31 07:22:13;;;;;;;18.88;14.48;;;6.40;81.00;;;;;;5032879;28;20523;-58
2022/12/31 07:24:40;;;;;;;21.50;14.43;;;6.40;81.00;;;;;;5019744;28;20037;-59
2022/12/31 07:27:34;;;;;;;19.67;15.02;;;6.40;80.90;;;;;;5030295;28;20034;-65
2022/12/31 07:30:08;;;;;;;21.90;15.88;;;6.40;80.70;;;;;;5032650;28;20075;-66
2022/12/31 07:32:59;;;;;;;20.58;15.10;;;6.40;80.70;;;;;;5029734;28;20087;-63
2022/12/31 07:35:24;;;;;;;21.20;15.32;;;6.50;80.50;;;;;;5020064;28;20029;-64
2022/12/31 07:38:34;;;;;;;21.45;15.60;;;6.50;80.40;;;;;;5032381;28;20530;-65
2022/12/31 07:41:21;;;;;;;22.40;15.55;;;6.50;80.20;;;;;;5028564;28;20090;-54
2022/12/31 07:43:59;;;;;;;19.23;14.40;;;6.50;80.10;;;;;;5029752;28;20045;-54
2022/12/31 07:46:51;;;;;;;21.27;15.23;;;6.50;80.10;;;;;;5031514;28;20025;-58
2022/12/31 07:49:17;;;;;;;21.27;16.48;;;6.50;80.00;;;;;;5032190;28;20478;-58
2022/12/31 07:51:43;;;;;;;25.25;16.83;;;6.40;79.90;;;;;;5031705;28;20068;-53
2022/12/31 07:54:08;;;;;;;21.63;16.90;;;6.40;79.90;;;;;;5023949;28;20053;-53
2022/12/31 07:56:34;;;;;;;20.58;16.65;;;6.30;79.70;;;;;;5032167;28;20041;-52
2022/12/31 07:59:22;;;;;;;22.95;16.20;;;6.30;79.90;;;;;;5029658;28;20034;-54
2022/12/31 08:01:58;;;;;;;21.25;16.02;;;6.30;80.00;;;;;;5030443;28;20067;-68
2022/12/31 08:04:39;;;;;;;19.17;15.65;;;6.30;80.20;;;;;;5031590;28;20103;-68
2022/12/31 08:07:49;;;;;;;23.10;16.42;;;6.30;80.20;;;;;;5032062;28;20029;-51
2022/12/31 08:10:24;;;;;;;19.58;15.10;;;6.30;80.40;;;;;;5031680;28;20079;-69
2022/12/31 08:13:01;;;;;;;21.55;16.00;;;6.30;80.50;;;;;;5031003;28;20025;-73
2022/12/31 08:15:27;;;;;;;19.98;15.77;;;6.40;80.60;;;;;;5030370;28;20034;-72
2022/12/31 08:17:53;;;;;;;23.60;17.80;;;6.40;80.50;;;;;;5032479;28;20057;-68
2022/12/31 08:20:19;;;;;;;23.88;18.55;;;6.40;80.50;;;;;;5031429;28;20107;-53
2022/12/31 08:23:03;;;;;;;25.33;19.77;;;6.40;80.40;;;;;;5031794;28;20026;-54
2022/12/31 08:25:39;;;;;;;25.38;19.85;;;6.50;80.40;;;;;;5030359;28;20045;-54
2022/12/31 08:28:24;;;;;;;23.63;18.75;;;6.50;80.50;;;;;;5028706;28;20029;-55
2022/12/31 08:30:57;;;;;;;26.55;20.17;;;6.50;80.50;;;;;;5019299;28;20052;-58
2022/12/31 08:33:45;;;;;;;28.13;21.50;;;6.50;80.50;;;;;;5037837;28;20022;-57
2022/12/31 08:36:39;;;;;;;24.65;18.55;;;6.50;80.50;;;;;;5029480;28;20030;-51
2022/12/31 08:39:25;;;;;;;26.98;20.27;;;6.50;80.50;;;;;;5029995;28;20436;-50
2022/12/31 08:41:55;;;;;;;26.17;17.63;;;6.50;80.80;;;;;;5026825;28;20040;-60
2022/12/31 08:44:56;;;;;;;23.27;17.52;;;6.40;81.00;;;;;;5026205;28;20030;-60
2022/12/31 08:47:30;;;;;;;23.95;18.65;;;6.40;81.10;;;;;;5026086;28;20026;-59
2022/12/31 08:49:56;;;;;;;21.17;16.70;;;6.40;81.40;;;;;;5033005;28;20017;-58
2022/12/31 08:52:25;;;;;;;25.52;18.90;;;6.50;81.50;;;;;;5033712;28;20076;-58
2022/12/31 08:54:52;;;;;;;24.92;18.17;;;6.50;81.50;;;;;;5035551;28;20065;-58
2022/12/31 08:57:30;;;;;;;26.25;19.35;;;6.50;81.50;;;;;;5032754;28;20087;-72
2022/12/31 09:00:08;;;;;;;24.40;18.17;;;6.60;81.40;;;;;;5028119;28;20034;-72
2022/12/31 09:02:55;;;;;;;21.70;17.40;;;6.70;81.20;;;;;;5023085;28;20049;-67
2022/12/31 09:05:25;;;;;;;23.52;18.27;;;6.70;81.10;;;;;;5021706;28;20042;-54
2022/12/31 09:07:57;;;;;;;22.90;17.20;;;6.70;81.00;;;;;;5033423;28;20033;-51
2022/12/31 09:10:42;;;;;;;23.55;17.80;;;6.80;81.00;;;;;;5034653;28;20101;-53
2022/12/31 09:13:36;;;;;;;25.00;18.05;;;6.80;81.00;;;;;;5035048;28;20018;-53
2022/12/31 09:16:25;;;;;;;24.65;19.15;;;6.90;80.90;;;;;;5014685;28;20079;-57
2022/12/31 09:18:51;;;;;;;24.55;18.75;;;7.00;81.10;;;;;;5033594;28;20022;-56
2022/12/31 09:21:17;;;;;;;22.35;17.98;;;7.00;80.90;;;;;;5033279;28;20678;-55
2022/12/31 09:23:43;;;;;;;22.90;17.35;;;7.10;80.90;;;;;;5034577;28;20029;-51
2022/12/31 09:26:17;;;;;;;24.20;18.83;;;7.10;80.80;;;;;;5034386;28;20417;-55
2022/12/31 09:29:14;;;;;;;27.75;19.70;;;7.10;80.80;;;;;;5035401;28;20444;-51
2022/12/31 09:32:03;;;;;;;26.52;18.80;;;7.20;80.80;;;;;;5029299;28;20014;-47
2022/12/31 09:34:39;;;;;;;27.83;18.70;;;7.20;80.60;;;;;;5034440;28;20047;-51
2022/12/31 09:37:37;;;;;;;21.95;16.80;;;7.20;80.70;;;;;;5023186;28;20075;-72
2022/12/31 09:40:31;;;;;;;22.55;16.25;;;7.30;80.70;;;;;;5033906;28;20083;-73
2022/12/31 09:43:11;;;;;;;21.10;16.63;;;7.30;80.70;;;;;;5034169;28;20042;-53
2022/12/31 09:45:46;;;;;;;23.48;16.20;;;7.30;80.70;;;;;;5033689;28;20042;-58
2022/12/31 09:48:23;;;;;;;22.85;16.80;;;7.40;80.70;;;;;;5034521;28;20033;-58
2022/12/31 09:51:12;;;;;;;22.20;17.92;;;7.40;80.40;;;;;;5033976;28;20037;-58
2022/12/31 09:53:59;;;;;;;21.48;16.15;;;7.40;80.40;;;;;;5033435;28;20109;-58
2022/12/31 09:56:31;;;;;;;20.77;16.20;;;7.40;80.70;;;;;;5022838;28;20029;-52
2022/12/31 09:59:11;;;;;;;23.35;16.88;;;7.40;80.90;;;;;;5027980;28;20057;-49
2022/12/31 10:02:04;;;;;;;23.55;17.50;;;7.40;81.00;;;;;;5030514;28;20026;-49
2022/12/31 10:04:48;;;;;;;23.27;16.88;;;7.40;81.00;;;;;;5028565;28;20045;-51
2022/12/31 10:07:49;;;;;;;22.27;16.13;;;7.40;81.00;;;;;;5033536;28;20467;-52
2022/12/31 10:10:56;;;;;;;21.43;17.27;;;7.50;81.20;;;;;;5027828;28;20430;-53
2022/12/31 10:13:38;;;;;;;20.95;15.77;;;7.50;81.00;;;;;;5024622;28;20278;-53
2022/12/31 10:16:17;;;;;;;23.67;15.90;;;7.60;81.20;;;;;;5019690;28;20838;-50
2022/12/31 10:19:42;;;;;;;24.17;16.63;;;7.60;81.10;;;;;;5030677;28;20022;-52
2022/12/31 10:22:52;;;;;;;19.90;14.27;;;7.70;81.10;;;;;;5009265;28;20026;-59
2022/12/31 10:25:39;;;;;;;20.15;15.43;;;7.70;81.00;;;;;;5008949;28;20098;-55
2022/12/31 10:28:14;;;;;;;20.73;16.73;;;7.80;81.00;;;;;;5031130;28;20103;-54
2022/12/31 10:30:52;;;;;;;21.13;16.20;;;7.80;80.80;;;;;;5033845;28;20025;-51
2022/12/31 10:33:43;;;;;;;19.38;14.90;;;7.80;80.60;;;;;;5031855;28;20480;-56
2022/12/31 10:36:19;;;;;;;20.57;15.17;;;7.90;80.70;;;;;;5030522;28;20036;-68
2022/12/31 10:39:00;;;;;;;23.77;17.58;;;7.90;80.80;;;;;;5034642;28;20347;-73
2022/12/31 10:41:48;;;;;;;22.38;16.30;;;8.00;80.80;;;;;;5032834;28;20376;-52
2022/12/31 10:44:45;;;;;;;21.15;15.88;;;8.00;80.80;;;;;;5033020;28;20045;-53
2022/12/31 10:47:29;;;;;;;23.25;15.77;;;8.00;80.60;;;;;;5033202;28;20030;-56
2022/12/31 10:50:25;;;;;;;20.25;15.07;;;8.00;80.60;;;;;;5032874;28;20348;-57
2022/12/31 10:53:12;;;;;;;20.42;14.98;;;8.10;80.60;;;;;;5019220;28;20116;-65
2022/12/31 10:56:05;;;;;;;22.00;15.90;;;8.10;80.60;;;;;;5030840;28;20038;-71
2022/12/31 10:59:08;;;;;;;24.20;16.90;;;8.10;80.50;;;;;;5042112;28;20036;-72
2022/12/31 11:01:45;;;;;;;21.27;15.02;;;8.20;80.30;;;;;;5021477;28;20082;-52
2022/12/31 11:04:47;;;;;;;20.27;15.45;;;8.30;80.40;;;;;;5029983;28;20042;-55
2022/12/31 11:07:36;;;;;;;19.60;15.13;;;8.30;80.20;;;;;;5026669;28;20033;-54
2022/12/31 11:10:38;;;;;;;23.17;16.63;;;8.30;80.00;;;;;;5009458;28;20038;-55
2022/12/31 11:13:30;;;;;;;19.25;14.30;;;8.40;79.90;;;;;;5019980;28;20452;-60
2022/12/31 11:16:02;;;;;;;20.77;15.90;;;8.50;79.90;;;;;;5021142;28;20120;-53
2022/12/31 11:18:36;;;;;;;;;;;8.50;79.80;;;;;;5018842;28;20028;-54
2022/12/31 11:21:34;;;;;;;19.13;14.23;;;8.50;80.50;;;;;;5016153;28;19909;-50
2022/12/31 11:24:08;;;;;;;18.08;14.27;;;8.60;79.80;;;;;;5023862;28;20045;-53
2022/12/31 11:27:11;;;;;;;19.27;14.50;;;8.60;79.70;;;;;;5019603;28;20029;-57
2022/12/31 11:29:51;;;;;;;20.33;14.73;;;8.70;79.70;;;;;;5019809;28;20380;-57
2022/12/31 11:33:10;;;;;;;18.73;15.32;;;8.70;79.50;;;;;;5022283;28;20033;-55
2022/12/31 11:36:01;;;;;;;19.05;14.02;;;8.70;79.50;;;;;;5008416;28;20075;-55
2022/12/31 11:38:30;;;;;;;19.85;13.63;;;8.80;79.50;;;;;;5019253;28;20095;-56
2022/12/31 11:41:13;;;;;;;18.42;14.13;;;8.80;79.50;;;;;;5024563;28;20686;-60
2022/12/31 11:43:50;;;;;;;21.63;15.52;;;8.90;79.40;;;;;;5026387;28;20048;-59
2022/12/31 11:46:23;;;;;;;15.95;12.93;;;8.90;79.20;;;;;;5026842;28;20026;-71
2022/12/31 11:49:43;;;;;;;23.63;16.83;;;8.90;79.10;;;;;;5024652;28;20040;-73
2022/12/31 11:52:41;;;;;;;21.15;15.30;;;9.00;78.90;;;;;;5020168;28;20814;-53
2022/12/31 11:55:48;;;;;;;19.73;14.32;;;9.00;78.80;;;;;;5019535;28;20594;-56
2022/12/31 11:58:16;;;;;;;18.40;13.68;;;9.10;79.40;;;;;;4998592;28;20034;-50
2022/12/31 12:01:16;;;;;;;17.50;14.50;;;9.10;78.70;;;;;;5022426;28;20037;-56
2022/12/31 12:03:42;;;;;;;21.42;15.02;;;9.10;78.50;;;;;;5021811;28;20042;-56
2022/12/31 12:06:18;;;;;;;20.00;14.93;;;9.10;78.60;;;;;;5022802;28;20141;-58
2022/12/31 12:08:45;;;;;;;23.95;17.00;;;9.10;78.50;;;;;;5026967;28;20053;-59
2022/12/31 12:11:22;;;;;;;20.25;15.82;;;9.10;78.40;;;;;;5021063;28;20035;-54
2022/12/31 12:13:48;;;;;;;19.90;14.57;;;9.10;78.30;;;;;;5024584;28;20099;-55
2022/12/31 12:16:14;;;;;;;20.58;15.27;;;9.10;78.40;;;;;;5019020;28;20053;-59
2022/12/31 12:18:46;;;;;;;21.13;16.30;;;9.20;78.30;;;;;;5022926;28;20112;-58
2022/12/31 12:21:16;;;;;;;19.38;15.05;;;9.20;78.30;;;;;;5028533;28;20547;-65
2022/12/31 12:24:01;;;;;;;20.95;15.75;;;9.20;78.30;;;;;;5023348;28;20037;-65
2022/12/31 12:26:36;;;;;;;20.05;15.10;;;9.20;78.20;;;;;;5026239;28;20072;-65
2022/12/31 12:29:21;;;;;;;19.75;15.18;;;9.20;78.30;;;;;;5027634;28;20026;-66
2022/12/31 12:31:57;;;;;;;21.10;15.95;;;9.20;78.20;;;;;;5025926;28;20427;-67
2022/12/31 12:34:26;;;;;;;20.92;15.48;;;9.20;78.30;;;;;;5022421;28;20036;-64
2022/12/31 12:36:52;;;;;;;21.23;15.52;;;9.10;78.20;;;;;;5031662;28;20104;-54
2022/12/31 12:39:23;;;;;;;20.75;15.05;;;9.10;78.20;;;;;;5029610;28;20163;-55
2022/12/31 12:42:09;;;;;;;20.50;15.02;;;9.10;78.20;;;;;;5028559;28;20036;-66
2022/12/31 12:44:35;;;;;;;19.42;15.07;;;9.10;78.20;;;;;;5025785;28;20033;-61
2022/12/31 12:47:07;;;;;;;20.02;14.60;;;9.10;78.10;;;;;;5033370;28;20033;-65
2022/12/31 12:49:40;;;;;;;;;;;9.10;78.00;;;;;;5025567;28;20044;-64
2022/12/31 12:52:14;;;;;;;20.27;15.55;;;9.00;77.60;;;;;;5024642;28;19908;-66
2022/12/31 12:55:03;;;;;;;21.13;15.48;;;9.00;78.00;;;;;;5032894;28;20418;-65
2022/12/31 12:57:44;;;;;;;26.42;17.90;;;9.00;78.10;;;;;;5032506;28;20048;-65
2022/12/31 13:00:20;;;;;;;26.07;17.50;;;9.00;78.30;;;;;;5030687;28;20406;-67
2022/12/31 13:03:11;;;;;;;25.75;17.25;;;8.90;78.30;;;;;;5034272;28;20029;-59
2022/12/31 13:06:01;;;;;;;23.83;16.20;;;9.00;78.30;;;;;;5033280;28;20518;-59
2022/12/31 13:08:51;;;;;;;23.98;16.73;;;9.00;78.40;;;;;;5041263;28;20028;-59
2022/12/31 13:11:38;;;;;;;23.80;14.82;;;9.00;78.30;;;;;;5024380;28;20045;-59
2022/12/31 13:14:27;;;;;;;25.65;17.08;;;9.00;78.30;;;;;;5033985;28;20033;-59
2022/12/31 13:16:55;;;;;;;21.73;15.48;;;9.00;78.60;;;;;;5033711;28;20029;-60
2022/12/31 13:19:35;;;;;;;22.48;14.65;;;9.00;78.30;;;;;;5044741;28;20043;-59
2022/12/31 13:22:21;;;;;;;22.52;15.88;;;9.00;78.20;;;;;;5034192;28;20033;-56
2022/12/31 13:24:52;;;;;;;26.67;17.13;;;9.00;78.20;;;;;;5034458;28;20037;-56
2022/12/31 13:27:23;;;;;;;22.77;15.60;;;9.00;78.30;;;;;;5041593;28;20036;-62
2022/12/31 13:29:51;;;;;;;23.38;16.02;;;9.00;78.20;;;;;;5033806;28;20037;-66